Mar Profundo — CUWO7 — position and weather

sailwx.info

Track history (hours):
 
Tides and Currents Weather Stations Pressure Air Temp Water Temp Dewpoint Dewpoint Depression Visibility Wind Speed Wind Dir Waves Ship Positions

Mar Profundo

Last reported at 2018-May-25 05:00 UTC. Time now 2018-May-25 05:27 UTC.
Position N 37°57' W 025°59'.

Type: Fishing. MMSI: 204209950.

Date/timePositionNaut miles runAvg speedWind from/ knotsBaromVisibWave heightAir tempDewpointWater temp
2018-May-25 05:00N 37°57' W 025°59'0 0.4
2018-May-25 04:31N 37°57' W 025°59'0 0.4
2018-May-25 04:00N 37°58' W 025°59'0 0.6
2018-May-25 03:30N 37°58' W 025°58'0 0.5
2018-May-25 03:01N 37°58' W 025°58'0 0.4
2018-May-25 02:30N 37°58' W 025°58'0 0.4
2018-May-25 02:00N 37°58' W 025°58'0 0.2
2018-May-25 01:30N 37°58' W 025°58'0 0.2
2018-May-25 01:00N 37°59' W 025°58'0 0.2
2018-May-25 00:30N 37°59' W 025°58'0 0.3
2018-May-25 00:00N 37°59' W 025°57'0 0.3
2018-May-24 23:30N 37°59' W 025°57'0 0.2
2018-May-24 23:00N 37°59' W 025°57'0 0.1
2018-May-24 22:30N 37°59' W 025°57'0 0.2
2018-May-24 22:01N 37°59' W 025°57'0 0.2
2018-May-24 21:30N 37°59' W 025°57'0 0.2
2018-May-24 21:00N 37°59' W 025°58'25 2.1
2018-May-24 09:01N 37°52' W 026°28'4 7.0
2018-May-24 08:30N 37°55' W 026°31'4 8.4
2018-May-24 08:00N 37°57' W 026°36'4 8.2
2018-May-24 07:31N 37°59' W 026°40'4 8.5
2018-May-24 07:00N 38°01' W 026°45'4 8.6
2018-May-24 06:30N 38°04' W 026°49'4 8.4
2018-May-24 06:00N 38°06' W 026°54'29 8.5
2018-May-24 02:33N 38°17' W 027°28'1 8.6
2018-May-24 02:23N 38°18' W 027°30'3 8.4
2018-May-24 02:00N 38°19' W 027°34'4 8.7
2018-May-24 01:30N 38°21' W 027°39'4 8.4
2018-May-24 01:00N 38°22' W 027°44'4 8.7
2018-May-24 00:30N 38°24' W 027°49'4 8.7
2018-May-24 00:00N 38°25' W 027°54'4 8.6
2018-May-23 23:30N 38°27' W 027°59'4 8.8
2018-May-23 23:00N 38°29' W 028°04'4 9.0
2018-May-23 22:30N 38°31' W 028°09'4 8.7
2018-May-23 22:01N 38°33' W 028°14'4 8.7
2018-May-23 21:30N 38°35' W 028°19'4 8.5
2018-May-23 21:00N 38°36' W 028°24'4 8.9
2018-May-23 20:30N 38°35' W 028°30'3 6.2
2018-May-23 20:00N 38°32' W 028°32'0 0.0
2018-May-23 19:30N 38°32' W 028°32'0 0.0
2018-May-23 19:00N 38°32' W 028°32'0 0.0
2018-May-23 18:30N 38°32' W 028°32'0 0.0
2018-May-23 18:00N 38°32' W 028°32'0 0.0
2018-May-23 17:30N 38°32' W 028°32'0 0.0
2018-May-23 17:00N 38°32' W 028°32'0 0.0
2018-May-23 16:30N 38°32' W 028°32'0 0.0
2018-May-23 16:00N 38°32' W 028°32'0 0.0
2018-May-23 15:30N 38°32' W 028°32'0 0.0
2018-May-23 15:00N 38°32' W 028°32'0 0.0
2018-May-23 14:30N 38°32' W 028°32'0 0.0
2018-May-23 14:00N 38°32' W 028°32'0 0.0
2018-May-23 13:30N 38°32' W 028°32'0 0.0
2018-May-23 13:00N 38°32' W 028°32'0 0.0
2018-May-23 12:30N 38°32' W 028°32'0 0.0
2018-May-23 12:00N 38°32' W 028°32'0 0.0
2018-May-23 11:30N 38°32' W 028°32'0 0.0
2018-May-23 11:00N 38°32' W 028°32'0 0.0
2018-May-23 10:31N 38°32' W 028°32'0 0.0
2018-May-23 10:00N 38°32' W 028°32'0 0.0
2018-May-23 09:30N 38°32' W 028°32'0 0.0
2018-May-23 09:00N 38°32' W 028°32'0 0.0
2018-May-23 08:30N 38°32' W 028°32'0 0.0
2018-May-23 08:00N 38°32' W 028°32'0 0.0
2018-May-23 07:30N 38°32' W 028°32'0 0.0
2018-May-23 07:00N 38°32' W 028°32'0 0.0
2018-May-23 06:30N 38°32' W 028°32'0 0.0
2018-May-23 06:00N 38°32' W 028°32'0 0.0
2018-May-23 05:30N 38°32' W 028°32'0 0.0
2018-May-23 05:00N 38°32' W 028°32'0 0.0
2018-May-23 04:30N 38°32' W 028°32'0 0.0
2018-May-23 04:01N 38°32' W 028°32'1 2.6
2018-May-23 03:30N 38°32' W 028°33'4 8.1
2018-May-23 03:00N 38°31' W 028°38'0 0.3
2018-May-23 02:31N 38°31' W 028°38'0 0.2
2018-May-23 02:00N 38°31' W 028°39'0 0.4
2018-May-23 01:30N 38°31' W 028°39'0 0.1
2018-May-23 01:00N 38°31' W 028°39'0 0.6
2018-May-23 00:30N 38°31' W 028°38'0 0.0
2018-May-23 00:00N 38°31' W 028°38'0 0.1
2018-May-22 23:30N 38°31' W 028°38'0 0.1
2018-May-22 23:00N 38°31' W 028°38'0 0.1
2018-May-22 22:30N 38°31' W 028°38'0 0.0
2018-May-22 22:00N 38°31' W 028°38'1 1.2
2018-May-22 21:30N 38°31' W 028°38'5 9.1
2018-May-22 21:00N 38°27' W 028°34'4 8.9
2018-May-22 20:30N 38°24' W 028°30'4 8.8
2018-May-22 20:00N 38°22' W 028°25'4 8.8
2018-May-22 19:30N 38°20' W 028°20'5 9.2
2018-May-22 19:00N 38°18' W 028°15'3 5.9
2018-May-22 18:30N 38°18' W 028°12'1 1.4
2018-May-22 18:00N 38°19' W 028°12'0 0.3
2018-May-22 17:30N 38°19' W 028°12'0 0.2
2018-May-22 17:00N 38°19' W 028°12'0 0.2
2018-May-22 16:30N 38°19' W 028°12'0 0.2
2018-May-22 16:01N 38°19' W 028°11'0 0.1
2018-May-22 15:30N 38°19' W 028°11'0 0.1
2018-May-22 15:00N 38°19' W 028°11'0 0.2
2018-May-22 14:31N 38°19' W 028°11'0 0.8
2018-May-22 14:00N 38°18' W 028°11'1 1.4
2018-May-22 13:30N 38°19' W 028°10'0 1.0
2018-May-22 13:01N 38°19' W 028°11'0 0.8
2018-May-22 12:30N 38°18' W 028°11'4 8.7
2018-May-22 12:00N 38°16' W 028°15'4 8.8
2018-May-22 11:30N 38°13' W 028°20'3 6.2
2018-May-22 11:00N 38°14' W 028°23'4 8.4
2018-May-22 10:30N 38°12' W 028°28'4 8.6
2018-May-22 10:00N 38°12' W 028°33'2 3.4
2018-May-22 09:30N 38°10' W 028°35'4 8.5
2018-May-22 09:00N 38°06' W 028°37'3 6.9
2018-May-22 08:30N 38°03' W 028°39'4 7.8
2018-May-22 08:00N 38°05' W 028°34'4 8.8
2018-May-22 07:30N 38°09' W 028°32'3 6.2
2018-May-22 07:00N 38°12' W 028°30'3 5.8
2018-May-22 06:30N 38°15' W 028°31'4 8.9
2018-May-22 06:00N 38°19' W 028°32'4 8.5
2018-May-22 05:30N 38°23' W 028°34'4 8.2
2018-May-22 05:00N 38°27' W 028°35'4 8.4
2018-May-22 04:30N 38°31' W 028°37'1 2.1
2018-May-22 04:00N 38°32' W 028°38'0 0.0
2018-May-22 03:30N 38°32' W 028°38'0 0.0
2018-May-22 03:00N 38°32' W 028°38'0 0.0
2018-May-22 02:30N 38°32' W 028°38'0 0.0
2018-May-22 02:00N 38°32' W 028°38'0 0.0
2018-May-22 01:30N 38°32' W 028°38'0 0.0
2018-May-22 01:00N 38°32' W 028°38'0 0.0
2018-May-22 00:30N 38°32' W 028°38'0 0.0
2018-May-22 00:01N 38°32' W 028°38'0 0.0
2018-May-21 23:30N 38°32' W 028°38'0 0.0
2018-May-21 23:00N 38°32' W 028°38'0 0.0
2018-May-21 22:31N 38°32' W 028°38'0 0.0
2018-May-21 22:00N 38°32' W 028°38'0 0.0
2018-May-21 21:30N 38°32' W 028°38'0 0.0
2018-May-21 21:01N 38°32' W 028°38'0 0.0
2018-May-21 20:30N 38°32' W 028°38'0 0.0
2018-May-21 20:00N 38°32' W 028°38'0 0.0
2018-May-21 19:31N 38°32' W 028°38'0 0.0
2018-May-21 19:00N 38°32' W 028°38'0 0.0
2018-May-21 18:30N 38°32' W 028°38'0 0.0
2018-May-21 18:01N 38°32' W 028°38'0 0.0
2018-May-21 17:30N 38°32' W 028°38'0 0.0
2018-May-21 17:00N 38°32' W 028°38'0 0.0
2018-May-21 16:30N 38°32' W 028°38'1 2.9
2018-May-21 16:00N 38°32' W 028°36'4 8.4
2018-May-21 15:30N 38°36' W 028°34'80 2.3
2018-May-20 04:32N 38°08' W 026°59'2 9.0
2018-May-20 04:17N 38°07' W 026°56'3 9.0
2018-May-20 04:00N 38°06' W 026°53'5 9.2
2018-May-20 03:30N 38°04' W 026°48'5 9.0
2018-May-20 03:00N 38°03' W 026°42'4 9.1
2018-May-20 02:30N 38°01' W 026°37'5 9.2
2018-May-20 02:00N 37°59' W 026°32'4 8.8
2018-May-20 01:30N 37°58' W 026°27'5 9.0
2018-May-20 00:59N 37°56' W 026°21'4 8.8
2018-May-20 00:30N 37°54' W 026°16'5 9.2
2018-May-20 00:00N 37°52' W 026°11'5 9.4
2018-May-19 23:30N 37°51' W 026°05'4 9.0
2018-May-19 23:00N 37°49' W 026°00'4 8.8
2018-May-19 22:31N 37°47' W 025°55'4 8.8
2018-May-19 22:00N 37°46' W 025°50'4 8.9
2018-May-19 21:30N 37°44' W 025°45'4 8.1
2018-May-19 21:00N 37°44' W 025°40'1 1.2
2018-May-19 20:30N 37°44' W 025°40'0 0.0
2018-May-19 20:00N 37°44' W 025°40'0 0.0
2018-May-19 19:30N 37°44' W 025°40'0 0.0
2018-May-19 19:00N 37°44' W 025°40'0 0.0
2018-May-19 18:30N 37°44' W 025°40'0 0.0
2018-May-19 18:00N 37°44' W 025°40'0 0.0
2018-May-19 17:30N 37°44' W 025°40'0 0.0
2018-May-19 17:00N 37°44' W 025°40'0 0.0
2018-May-19 16:30N 37°44' W 025°40'0 0.0
2018-May-19 16:00N 37°44' W 025°40'0 0.0
2018-May-19 15:30N 37°44' W 025°40'0 0.0
2018-May-19 15:00N 37°44' W 025°40'0 0.0
2018-May-19 14:30N 37°44' W 025°40'0 0.0
2018-May-19 14:00N 37°44' W 025°40'0 0.0
2018-May-19 13:30N 37°44' W 025°40'0 0.0
2018-May-19 13:00N 37°44' W 025°40'0 0.0
2018-May-19 12:30N 37°44' W 025°40'0 0.0
2018-May-19 12:00N 37°44' W 025°40'0 0.0
2018-May-19 11:31N 37°44' W 025°40'0 0.0
2018-May-19 11:00N 37°44' W 025°40'0 0.0
2018-May-19 10:30N 37°44' W 025°40'1 1.6
2018-May-19 10:00N 37°44' W 025°39'1 1.6
2018-May-19 09:30N 37°44' W 025°40'0 0.0
2018-May-19 09:00N 37°44' W 025°40'0 0.0
2018-May-19 08:30N 37°44' W 025°40'0 0.0
2018-May-19 08:01N 37°44' W 025°40'0 0.0
2018-May-19 07:30N 37°44' W 025°40'0 0.0
2018-May-19 07:00N 37°44' W 025°40'0 0.0
2018-May-19 06:30N 37°44' W 025°40'0 0.0
2018-May-19 06:00N 37°44' W 025°40'0 0.0
2018-May-19 05:30N 37°44' W 025°40'0 0.0
2018-May-19 05:00N 37°44' W 025°40'0 0.0
2018-May-19 04:30N 37°44' W 025°40'0 0.0
2018-May-19 04:00N 37°44' W 025°40'0 0.0
2018-May-19 03:30N 37°44' W 025°40'0 0.0
2018-May-19 03:00N 37°44' W 025°40'0 0.0
2018-May-19 02:31N 37°44' W 025°40'0 0.0
2018-May-19 02:01N 37°44' W 025°40'0 0.0
2018-May-19 01:30N 37°44' W 025°40'0 0.0
2018-May-19 01:00N 37°44' W 025°40'0 0.0
2018-May-19 00:30N 37°44' W 025°40'0 0.0
2018-May-19 00:00N 37°44' W 025°40'0 0.0
2018-May-18 23:30N 37°44' W 025°40'0 0.0
2018-May-18 23:01N 37°44' W 025°40'0 0.0
2018-May-18 22:30N 37°44' W 025°40'0 0.0
2018-May-18 22:00N 37°44' W 025°40'0 0.0
2018-May-18 21:30N 37°44' W 025°40'0 0.0
2018-May-18 21:00N 37°44' W 025°40'0 0.0
2018-May-18 20:30N 37°44' W 025°40'1 1.9
2018-May-18 20:00N 37°44' W 025°39'4 8.7
2018-May-18 19:31N 37°41' W 025°35'4 8.3
2018-May-18 19:00N 37°38' W 025°32'4 8.6
2018-May-18 18:30N 37°35' W 025°28'4 8.8
2018-May-18 18:01N 37°31' W 025°25'4 8.8
2018-May-18 17:30N 37°27' W 025°22'4 8.6
2018-May-18 17:00N 37°24' W 025°18'4 8.8
2018-May-18 16:30N 37°21' W 025°14'4 8.3
2018-May-18 16:00N 37°18' W 025°10'4 8.3
2018-May-18 15:30N 37°16' W 025°06'4 8.8
2018-May-18 15:00N 37°13' W 025°02'3 6.1
2018-May-18 14:30N 37°11' W 024°59'4 8.1
2018-May-18 14:00N 37°11' W 024°54'1 1.5
2018-May-18 13:30N 37°10' W 024°53'3 7.0
2018-May-18 13:01N 37°07' W 024°53'4 8.0
2018-May-18 12:30N 37°08' W 024°58'4 8.1
2018-May-18 12:00N 37°09' W 025°03'4 8.2
2018-May-18 11:31N 37°11' W 025°08'4 8.5
2018-May-18 11:00N 37°12' W 025°03'5 9.1
2018-May-18 10:30N 37°14' W 024°57'5 9.0
2018-May-18 10:00N 37°16' W 024°53'5 9.2
2018-May-18 09:30N 37°19' W 024°48'3 5.9
2018-May-18 09:01N 37°17' W 024°50'4 8.2
2018-May-18 08:30N 37°13' W 024°51'3 6.6
2018-May-18 08:00N 37°10' W 024°51'4 8.9
2018-May-18 07:31N 37°06' W 024°47'3 5.1
2018-May-18 07:00N 37°04' W 024°47'4 7.7
2018-May-18 06:30N 37°02' W 024°51'4 8.0
2018-May-18 06:01N 36°59' W 024°54'4 8.0
2018-May-18 05:30N 36°56' W 024°57'4 7.2
2018-May-18 05:00N 36°54' W 025°01'4 7.6
2018-May-18 04:31N 36°55' W 025°06'3 6.1
2018-May-18 04:00N 36°57' W 025°09'0 0.0
2018-May-18 03:30N 36°57' W 025°09'0 0.0
2018-May-18 03:00N 36°57' W 025°09'0 0.0
2018-May-18 02:30N 36°57' W 025°09'0 0.0
2018-May-18 02:00N 36°57' W 025°09'0 0.0
2018-May-18 01:30N 36°57' W 025°09'0 0.0
2018-May-18 01:00N 36°57' W 025°09'0 0.0
2018-May-18 00:30N 36°57' W 025°09'0 0.0
2018-May-18 00:00N 36°57' W 025°09'0 0.0
2018-May-17 23:30N 36°57' W 025°09'0 0.0
2018-May-17 23:00N 36°57' W 025°09'3 5.5
2018-May-17 22:30N 36°55' W 025°06'2 3.2
2018-May-17 22:01N 36°54' W 025°04'0 0.4
2018-May-17 21:30N 36°54' W 025°04'0 0.2
2018-May-17 21:00N 36°54' W 025°04'0 0.7
2018-May-17 20:31N 36°55' W 025°04'0 0.9
2018-May-17 20:00N 36°55' W 025°04'0 1.0
2018-May-17 19:30N 36°54' W 025°04'0 0.8
2018-May-17 19:01N 36°54' W 025°03'0 0.8
2018-May-17 18:30N 36°54' W 025°03'3 6.1
2018-May-17 18:00N 36°56' W 024°59'4 8.6
2018-May-17 17:30N 36°60' W 024°58'4 7.6
2018-May-17 17:00N 37°03' W 024°56'4 8.2
2018-May-17 16:30N 37°07' W 024°55'3 6.0
2018-May-17 16:00N 37°10' W 024°55'3 5.4
2018-May-17 15:30N 37°13' W 024°53'1 2.7
2018-May-17 15:00N 37°12' W 024°55'1 2.6
2018-May-17 14:30N 37°11' W 024°56'4 8.1
2018-May-17 14:00N 37°07' W 024°55'3 7.0
2018-May-17 13:30N 37°06' W 024°51'4 7.6
2018-May-17 13:00N 37°03' W 024°47'3 5.3
2018-May-17 12:31N 37°05' W 024°50'5 9.0
2018-May-17 12:00N 37°09' W 024°51'5 1.3
2018-May-17 07:58N 37°05' W 024°48'4 9.0
2018-May-17 07:30N 37°05' W 024°43'3 5.8
2018-May-17 07:00N 37°05' W 024°46'4 7.7
2018-May-17 06:30N 37°02' W 024°49'4 7.9
2018-May-17 06:00N 36°59' W 024°53'4 8.0
2018-May-17 05:30N 36°56' W 024°57'4 7.7
2018-May-17 05:01N 36°54' W 025°01'4 8.0
2018-May-17 04:30N 36°55' W 025°06'3 6.2
2018-May-17 04:00N 36°57' W 025°09'0 0.0
2018-May-17 03:30N 36°57' W 025°09'0 0.0
2018-May-17 03:00N 36°57' W 025°09'0 0.0
2018-May-17 02:31N 36°57' W 025°09'0 0.0
2018-May-17 02:00N 36°57' W 025°09'0 0.0
2018-May-17 01:30N 36°57' W 025°09'0 0.0
2018-May-17 01:01N 36°57' W 025°09'0 0.0
2018-May-17 00:30N 36°57' W 025°09'0 0.0
2018-May-17 00:00N 36°57' W 025°09'0 0.0
2018-May-16 23:31N 36°57' W 025°09'0 0.0
2018-May-16 23:00N 36°57' W 025°09'0 0.0
2018-May-16 22:30N 36°57' W 025°09'0 0.0
2018-May-16 22:00N 36°57' W 025°09'0 0.0
2018-May-16 21:30N 36°57' W 025°09'0 0.0
2018-May-16 21:00N 36°57' W 025°09'0 0.0
2018-May-16 20:30N 36°57' W 025°09'0 0.0
2018-May-16 20:00N 36°57' W 025°09'3 6.1
2018-May-16 19:30N 36°55' W 025°06'4 8.8
2018-May-16 19:00N 36°55' W 025°00'5 9.0
2018-May-16 18:30N 36°58' W 024°56'4 9.0
2018-May-16 18:00N 37°01' W 024°52'4 8.9
2018-May-16 17:30N 37°04' W 024°48'4 8.1
2018-May-16 17:00N 37°01' W 024°52'3 5.2
2018-May-16 16:30N 37°03' W 024°50'3 5.8
2018-May-16 16:00N 37°06' W 024°48'2 3.9
2018-May-16 15:30N 37°04' W 024°47'4 7.0
2018-May-16 15:00N 37°07' W 024°47'2 3.8
2018-May-16 14:30N 37°07' W 024°45'1 1.6
2018-May-16 14:00N 37°07' W 024°46'2 4.7
2018-May-16 13:31N 37°07' W 024°49'4 7.3
2018-May-16 13:00N 37°04' W 024°52'2 4.0
2018-May-16 12:30N 37°04' W 024°49'3 5.6
2018-May-16 12:01N 37°06' W 024°47'4 7.2
2018-May-16 11:30N 37°06' W 024°42'0 0.7
2018-May-16 11:00N 37°06' W 024°42'1 2.5
2018-May-16 10:30N 37°07' W 024°42'2 4.8
2018-May-16 10:00N 37°09' W 024°42'3 6.5
2018-May-16 09:30N 37°10' W 024°38'3 6.1
2018-May-16 09:00N 37°07' W 024°38'4 8.0
2018-May-16 08:30N 37°08' W 024°33'3 6.4
2018-May-16 08:00N 37°05' W 024°35'3 6.6
2018-May-16 07:30N 37°04' W 024°39'1 1.7
2018-May-16 07:00N 37°04' W 024°40'2 3.9
2018-May-16 06:30N 37°02' W 024°42'3 6.0
2018-May-16 06:00N 37°04' W 024°45'4 8.1
2018-May-16 05:30N 37°07' W 024°49'4 8.3
2018-May-16 05:00N 37°10' W 024°53'4 8.6
2018-May-16 04:30N 37°12' W 024°57'4 8.6
2018-May-16 04:00N 37°15' W 025°01'4 8.4
2018-May-16 03:30N 37°18' W 025°05'4 8.4
2018-May-16 03:00N 37°21' W 025°09'4 8.6
2018-May-16 02:30N 37°23' W 025°13'4 8.7
2018-May-16 02:00N 37°26' W 025°17'4 8.6
2018-May-16 01:30N 37°29' W 025°22'4 7.8
2018-May-16 01:00N 37°32' W 025°25'4 8.7
2018-May-16 00:30N 37°34' W 025°29'4 8.6
2018-May-16 00:00N 37°37' W 025°33'4 7.8
2018-May-15 23:30N 37°40' W 025°36'4 7.6
2018-May-15 23:01N 37°43' W 025°39'1 2.8
2018-May-15 22:30N 37°44' W 025°40'0 0.0
2018-May-15 22:00N 37°44' W 025°40'0 0.0
2018-May-15 21:29N 37°44' W 025°40'0 0.0
2018-May-15 21:00N 37°44' W 025°40'0 0.0
2018-May-15 20:30N 37°44' W 025°40'0 0.0
2018-May-15 20:00N 37°44' W 025°40'0 0.0
2018-May-15 19:30N 37°44' W 025°40'0 0.0
2018-May-15 19:00N 37°44' W 025°40'0 0.0
2018-May-15 18:30N 37°44' W 025°40'0 0.0
2018-May-15 18:00N 37°44' W 025°40'0 0.0
2018-May-15 17:30N 37°44' W 025°40'0 0.0
2018-May-15 17:00N 37°44' W 025°40'0 0.0
2018-May-15 16:30N 37°44' W 025°40'0 0.0
2018-May-15 16:00N 37°44' W 025°40'1 1.9
2018-May-15 15:30N 37°44' W 025°39'1 1.1
2018-May-15 15:00N 37°44' W 025°40'1 1.0
2018-May-15 14:30N 37°44' W 025°40'0 0.0
2018-May-15 14:00N 37°44' W 025°40'0 0.0
2018-May-15 13:30N 37°44' W 025°40'0 0.0
2018-May-15 13:00N 37°44' W 025°40'0 0.0
2018-May-15 12:30N 37°44' W 025°40'0 0.0
2018-May-15 12:00N 37°44' W 025°40'0 0.0
2018-May-15 11:30N 37°44' W 025°40'0 0.0
2018-May-15 11:00N 37°44' W 025°40'0 0.0
2018-May-15 10:30N 37°44' W 025°40'0 0.0
2018-May-15 10:00N 37°44' W 025°40'0 0.0
2018-May-15 09:30N 37°44' W 025°40'0 0.0
2018-May-15 09:00N 37°44' W 025°40'0 0.0
2018-May-15 08:30N 37°44' W 025°40'0 0.1
2018-May-15 08:00N 37°44' W 025°40'0 0.0
2018-May-15 07:30N 37°44' W 025°40'0 0.0
2018-May-15 07:00N 37°44' W 025°40'0 0.0
2018-May-15 06:30N 37°44' W 025°40'0 0.0
2018-May-15 06:00N 37°44' W 025°40'0 0.0
2018-May-15 05:30N 37°44' W 025°40'0 0.0
2018-May-15 05:00N 37°44' W 025°40'  
Track history (hours):
 
Tides and Currents Weather Stations Pressure Air Temp Water Temp Dewpoint Dewpoint Depression Visibility Wind Speed Wind Dir Waves Ship Positions

Mar Profundo

Last reported at 2018-May-25 05:00 UTC. Time now 2018-May-25 05:27 UTC.
Position N 37°57' W 025°59'.

Type: Fishing. MMSI: 204209950.

Date/timePositionNaut miles runAvg speedWind from/ knotsBaromVisibWave heightAir tempDewpointWater temp
2018-May-25 05:00N 37°57' W 025°59'0 0.4
2018-May-25 04:31N 37°57' W 025°59'0 0.4
2018-May-25 04:00N 37°58' W 025°59'0 0.6
2018-May-25 03:30N 37°58' W 025°58'0 0.5
2018-May-25 03:01N 37°58' W 025°58'0 0.4
2018-May-25 02:30N 37°58' W 025°58'0 0.4
2018-May-25 02:00N 37°58' W 025°58'0 0.2
2018-May-25 01:30N 37°58' W 025°58'0 0.2
2018-May-25 01:00N 37°59' W 025°58'0 0.2
2018-May-25 00:30N 37°59' W 025°58'0 0.3
2018-May-25 00:00N 37°59' W 025°57'0 0.3
2018-May-24 23:30N 37°59' W 025°57'0 0.2
2018-May-24 23:00N 37°59' W 025°57'0 0.1
2018-May-24 22:30N 37°59' W 025°57'0 0.2
2018-May-24 22:01N 37°59' W 025°57'0 0.2
2018-May-24 21:30N 37°59' W 025°57'0 0.2
2018-May-24 21:00N 37°59' W 025°58'25 2.1
2018-May-24 09:01N 37°52' W 026°28'4 7.0
2018-May-24 08:30N 37°55' W 026°31'4 8.4
2018-May-24 08:00N 37°57' W 026°36'4 8.2
2018-May-24 07:31N 37°59' W 026°40'4 8.5
2018-May-24 07:00N 38°01' W 026°45'4 8.6
2018-May-24 06:30N 38°04' W 026°49'4 8.4
2018-May-24 06:00N 38°06' W 026°54'29 8.5
2018-May-24 02:33N 38°17' W 027°28'1 8.6
2018-May-24 02:23N 38°18' W 027°30'3 8.4
2018-May-24 02:00N 38°19' W 027°34'4 8.7
2018-May-24 01:30N 38°21' W 027°39'4 8.4
2018-May-24 01:00N 38°22' W 027°44'4 8.7
2018-May-24 00:30N 38°24' W 027°49'4 8.7
2018-May-24 00:00N 38°25' W 027°54'4 8.6
2018-May-23 23:30N 38°27' W 027°59'4 8.8
2018-May-23 23:00N 38°29' W 028°04'4 9.0
2018-May-23 22:30N 38°31' W 028°09'4 8.7
2018-May-23 22:01N 38°33' W 028°14'4 8.7
2018-May-23 21:30N 38°35' W 028°19'4 8.5
2018-May-23 21:00N 38°36' W 028°24'4 8.9
2018-May-23 20:30N 38°35' W 028°30'3 6.2
2018-May-23 20:00N 38°32' W 028°32'0 0.0
2018-May-23 19:30N 38°32' W 028°32'0 0.0
2018-May-23 19:00N 38°32' W 028°32'0 0.0
2018-May-23 18:30N 38°32' W 028°32'0 0.0
2018-May-23 18:00N 38°32' W 028°32'0 0.0
2018-May-23 17:30N 38°32' W 028°32'0 0.0
2018-May-23 17:00N 38°32' W 028°32'0 0.0
2018-May-23 16:30N 38°32' W 028°32'0 0.0
2018-May-23 16:00N 38°32' W 028°32'0 0.0
2018-May-23 15:30N 38°32' W 028°32'0 0.0
2018-May-23 15:00N 38°32' W 028°32'0 0.0
2018-May-23 14:30N 38°32' W 028°32'0 0.0
2018-May-23 14:00N 38°32' W 028°32'0 0.0
2018-May-23 13:30N 38°32' W 028°32'0 0.0
2018-May-23 13:00N 38°32' W 028°32'0 0.0
2018-May-23 12:30N 38°32' W 028°32'0 0.0
2018-May-23 12:00N 38°32' W 028°32'0 0.0
2018-May-23 11:30N 38°32' W 028°32'0 0.0
2018-May-23 11:00N 38°32' W 028°32'0 0.0
2018-May-23 10:31N 38°32' W 028°32'0 0.0
2018-May-23 10:00N 38°32' W 028°32'0 0.0
2018-May-23 09:30N 38°32' W 028°32'0 0.0
2018-May-23 09:00N 38°32' W 028°32'0 0.0
2018-May-23 08:30N 38°32' W 028°32'0 0.0
2018-May-23 08:00N 38°32' W 028°32'0 0.0
2018-May-23 07:30N 38°32' W 028°32'0 0.0
2018-May-23 07:00N 38°32' W 028°32'0 0.0
2018-May-23 06:30N 38°32' W 028°32'0 0.0
2018-May-23 06:00N 38°32' W 028°32'0 0.0
2018-May-23 05:30N 38°32' W 028°32'0 0.0
2018-May-23 05:00N 38°32' W 028°32'0 0.0
2018-May-23 04:30N 38°32' W 028°32'0 0.0
2018-May-23 04:01N 38°32' W 028°32'1 2.6
2018-May-23 03:30N 38°32' W 028°33'4 8.1
2018-May-23 03:00N 38°31' W 028°38'0 0.3
2018-May-23 02:31N 38°31' W 028°38'0 0.2
2018-May-23 02:00N 38°31' W 028°39'0 0.4
2018-May-23 01:30N 38°31' W 028°39'0 0.1
2018-May-23 01:00N 38°31' W 028°39'0 0.6
2018-May-23 00:30N 38°31' W 028°38'0 0.0
2018-May-23 00:00N 38°31' W 028°38'0 0.1
2018-May-22 23:30N 38°31' W 028°38'0 0.1
2018-May-22 23:00N 38°31' W 028°38'0 0.1
2018-May-22 22:30N 38°31' W 028°38'0 0.0
2018-May-22 22:00N 38°31' W 028°38'1 1.2
2018-May-22 21:30N 38°31' W 028°38'5 9.1
2018-May-22 21:00N 38°27' W 028°34'4 8.9
2018-May-22 20:30N 38°24' W 028°30'4 8.8
2018-May-22 20:00N 38°22' W 028°25'4 8.8
2018-May-22 19:30N 38°20' W 028°20'5 9.2
2018-May-22 19:00N 38°18' W 028°15'3 5.9
2018-May-22 18:30N 38°18' W 028°12'1 1.4
2018-May-22 18:00N 38°19' W 028°12'0 0.3
2018-May-22 17:30N 38°19' W 028°12'0 0.2
2018-May-22 17:00N 38°19' W 028°12'0 0.2
2018-May-22 16:30N 38°19' W 028°12'0 0.2
2018-May-22 16:01N 38°19' W 028°11'0 0.1
2018-May-22 15:30N 38°19' W 028°11'0 0.1
2018-May-22 15:00N 38°19' W 028°11'0 0.2
2018-May-22 14:31N 38°19' W 028°11'0 0.8
2018-May-22 14:00N 38°18' W 028°11'1 1.4
2018-May-22 13:30N 38°19' W 028°10'0 1.0
2018-May-22 13:01N 38°19' W 028°11'0 0.8
2018-May-22 12:30N 38°18' W 028°11'4 8.7
2018-May-22 12:00N 38°16' W 028°15'4 8.8
2018-May-22 11:30N 38°13' W 028°20'3 6.2
2018-May-22 11:00N 38°14' W 028°23'4 8.4
2018-May-22 10:30N 38°12' W 028°28'4 8.6
2018-May-22 10:00N 38°12' W 028°33'2 3.4
2018-May-22 09:30N 38°10' W 028°35'4 8.5
2018-May-22 09:00N 38°06' W 028°37'3 6.9
2018-May-22 08:30N 38°03' W 028°39'4 7.8
2018-May-22 08:00N 38°05' W 028°34'4 8.8
2018-May-22 07:30N 38°09' W 028°32'3 6.2
2018-May-22 07:00N 38°12' W 028°30'3 5.8
2018-May-22 06:30N 38°15' W 028°31'4 8.9
2018-May-22 06:00N 38°19' W 028°32'4 8.5
2018-May-22 05:30N 38°23' W 028°34'4 8.2
2018-May-22 05:00N 38°27' W 028°35'4 8.4
2018-May-22 04:30N 38°31' W 028°37'1 2.1
2018-May-22 04:00N 38°32' W 028°38'0 0.0
2018-May-22 03:30N 38°32' W 028°38'0 0.0
2018-May-22 03:00N 38°32' W 028°38'0 0.0
2018-May-22 02:30N 38°32' W 028°38'0 0.0
2018-May-22 02:00N 38°32' W 028°38'0 0.0
2018-May-22 01:30N 38°32' W 028°38'0 0.0
2018-May-22 01:00N 38°32' W 028°38'0 0.0
2018-May-22 00:30N 38°32' W 028°38'0 0.0
2018-May-22 00:01N 38°32' W 028°38'0 0.0
2018-May-21 23:30N 38°32' W 028°38'0 0.0
2018-May-21 23:00N 38°32' W 028°38'0 0.0
2018-May-21 22:31N 38°32' W 028°38'0 0.0
2018-May-21 22:00N 38°32' W 028°38'0 0.0
2018-May-21 21:30N 38°32' W 028°38'0 0.0
2018-May-21 21:01N 38°32' W 028°38'0 0.0
2018-May-21 20:30N 38°32' W 028°38'0 0.0
2018-May-21 20:00N 38°32' W 028°38'0 0.0
2018-May-21 19:31N 38°32' W 028°38'0 0.0
2018-May-21 19:00N 38°32' W 028°38'0 0.0
2018-May-21 18:30N 38°32' W 028°38'0 0.0
2018-May-21 18:01N 38°32' W 028°38'0 0.0
2018-May-21 17:30N 38°32' W 028°38'0 0.0
2018-May-21 17:00N 38°32' W 028°38'0 0.0
2018-May-21 16:30N 38°32' W 028°38'1 2.9
2018-May-21 16:00N 38°32' W 028°36'4 8.4
2018-May-21 15:30N 38°36' W 028°34'80 2.3
2018-May-20 04:32N 38°08' W 026°59'2 9.0
2018-May-20 04:17N 38°07' W 026°56'3 9.0
2018-May-20 04:00N 38°06' W 026°53'5 9.2
2018-May-20 03:30N 38°04' W 026°48'5 9.0
2018-May-20 03:00N 38°03' W 026°42'4 9.1
2018-May-20 02:30N 38°01' W 026°37'5 9.2
2018-May-20 02:00N 37°59' W 026°32'4 8.8
2018-May-20 01:30N 37°58' W 026°27'5 9.0
2018-May-20 00:59N 37°56' W 026°21'4 8.8
2018-May-20 00:30N 37°54' W 026°16'5 9.2
2018-May-20 00:00N 37°52' W 026°11'5 9.4
2018-May-19 23:30N 37°51' W 026°05'4 9.0
2018-May-19 23:00N 37°49' W 026°00'4 8.8
2018-May-19 22:31N 37°47' W 025°55'4 8.8
2018-May-19 22:00N 37°46' W 025°50'4 8.9
2018-May-19 21:30N 37°44' W 025°45'4 8.1
2018-May-19 21:00N 37°44' W 025°40'1 1.2
2018-May-19 20:30N 37°44' W 025°40'0 0.0
2018-May-19 20:00N 37°44' W 025°40'0 0.0
2018-May-19 19:30N 37°44' W 025°40'0 0.0
2018-May-19 19:00N 37°44' W 025°40'0 0.0
2018-May-19 18:30N 37°44' W 025°40'0 0.0
2018-May-19 18:00N 37°44' W 025°40'0 0.0
2018-May-19 17:30N 37°44' W 025°40'0 0.0
2018-May-19 17:00N 37°44' W 025°40'0 0.0
2018-May-19 16:30N 37°44' W 025°40'0 0.0
2018-May-19 16:00N 37°44' W 025°40'0 0.0
2018-May-19 15:30N 37°44' W 025°40'0 0.0
2018-May-19 15:00N 37°44' W 025°40'0 0.0
2018-May-19 14:30N 37°44' W 025°40'0 0.0
2018-May-19 14:00N 37°44' W 025°40'0 0.0
2018-May-19 13:30N 37°44' W 025°40'0 0.0
2018-May-19 13:00N 37°44' W 025°40'0 0.0
2018-May-19 12:30N 37°44' W 025°40'0 0.0
2018-May-19 12:00N 37°44' W 025°40'0 0.0
2018-May-19 11:31N 37°44' W 025°40'0 0.0
2018-May-19 11:00N 37°44' W 025°40'0 0.0
2018-May-19 10:30N 37°44' W 025°40'1 1.6
2018-May-19 10:00N 37°44' W 025°39'1 1.6
2018-May-19 09:30N 37°44' W 025°40'0 0.0
2018-May-19 09:00N 37°44' W 025°40'0 0.0
2018-May-19 08:30N 37°44' W 025°40'0 0.0
2018-May-19 08:01N 37°44' W 025°40'0 0.0
2018-May-19 07:30N 37°44' W 025°40'0 0.0
2018-May-19 07:00N 37°44' W 025°40'0 0.0
2018-May-19 06:30N 37°44' W 025°40'0 0.0
2018-May-19 06:00N 37°44' W 025°40'0 0.0
2018-May-19 05:30N 37°44' W 025°40'0 0.0
2018-May-19 05:00N 37°44' W 025°40'0 0.0
2018-May-19 04:30N 37°44' W 025°40'0 0.0
2018-May-19 04:00N 37°44' W 025°40'0 0.0
2018-May-19 03:30N 37°44' W 025°40'0 0.0
2018-May-19 03:00N 37°44' W 025°40'0 0.0
2018-May-19 02:31N 37°44' W 025°40'0 0.0
2018-May-19 02:01N 37°44' W 025°40'0 0.0
2018-May-19 01:30N 37°44' W 025°40'0 0.0
2018-May-19 01:00N 37°44' W 025°40'0 0.0
2018-May-19 00:30N 37°44' W 025°40'0 0.0
2018-May-19 00:00N 37°44' W 025°40'0 0.0
2018-May-18 23:30N 37°44' W 025°40'0 0.0
2018-May-18 23:01N 37°44' W 025°40'0 0.0
2018-May-18 22:30N 37°44' W 025°40'0 0.0
2018-May-18 22:00N 37°44' W 025°40'0 0.0
2018-May-18 21:30N 37°44' W 025°40'0 0.0
2018-May-18 21:00N 37°44' W 025°40'0 0.0
2018-May-18 20:30N 37°44' W 025°40'1 1.9
2018-May-18 20:00N 37°44' W 025°39'4 8.7
2018-May-18 19:31N 37°41' W 025°35'4 8.3
2018-May-18 19:00N 37°38' W 025°32'4 8.6
2018-May-18 18:30N 37°35' W 025°28'4 8.8
2018-May-18 18:01N 37°31' W 025°25'4 8.8
2018-May-18 17:30N 37°27' W 025°22'4 8.6
2018-May-18 17:00N 37°24' W 025°18'4 8.8
2018-May-18 16:30N 37°21' W 025°14'4 8.3
2018-May-18 16:00N 37°18' W 025°10'4 8.3
2018-May-18 15:30N 37°16' W 025°06'4 8.8
2018-May-18 15:00N 37°13' W 025°02'3 6.1
2018-May-18 14:30N 37°11' W 024°59'4 8.1
2018-May-18 14:00N 37°11' W 024°54'1 1.5
2018-May-18 13:30N 37°10' W 024°53'3 7.0
2018-May-18 13:01N 37°07' W 024°53'4 8.0
2018-May-18 12:30N 37°08' W 024°58'4 8.1
2018-May-18 12:00N 37°09' W 025°03'4 8.2
2018-May-18 11:31N 37°11' W 025°08'4 8.5
2018-May-18 11:00N 37°12' W 025°03'5 9.1
2018-May-18 10:30N 37°14' W 024°57'5 9.0
2018-May-18 10:00N 37°16' W 024°53'5 9.2
2018-May-18 09:30N 37°19' W 024°48'3 5.9
2018-May-18 09:01N 37°17' W 024°50'4 8.2
2018-May-18 08:30N 37°13' W 024°51'3 6.6
2018-May-18 08:00N 37°10' W 024°51'4 8.9
2018-May-18 07:31N 37°06' W 024°47'3 5.1
2018-May-18 07:00N 37°04' W 024°47'4 7.7
2018-May-18 06:30N 37°02' W 024°51'4 8.0
2018-May-18 06:01N 36°59' W 024°54'4 8.0
2018-May-18 05:30N 36°56' W 024°57'4 7.2
2018-May-18 05:00N 36°54' W 025°01'4 7.6
2018-May-18 04:31N 36°55' W 025°06'3 6.1
2018-May-18 04:00N 36°57' W 025°09'0 0.0
2018-May-18 03:30N 36°57' W 025°09'0 0.0
2018-May-18 03:00N 36°57' W 025°09'0 0.0
2018-May-18 02:30N 36°57' W 025°09'0 0.0
2018-May-18 02:00N 36°57' W 025°09'0 0.0
2018-May-18 01:30N 36°57' W 025°09'0 0.0
2018-May-18 01:00N 36°57' W 025°09'0 0.0
2018-May-18 00:30N 36°57' W 025°09'0 0.0
2018-May-18 00:00N 36°57' W 025°09'0 0.0
2018-May-17 23:30N 36°57' W 025°09'0 0.0
2018-May-17 23:00N 36°57' W 025°09'3 5.5
2018-May-17 22:30N 36°55' W 025°06'2 3.2
2018-May-17 22:01N 36°54' W 025°04'0 0.4
2018-May-17 21:30N 36°54' W 025°04'0 0.2
2018-May-17 21:00N 36°54' W 025°04'0 0.7
2018-May-17 20:31N 36°55' W 025°04'0 0.9
2018-May-17 20:00N 36°55' W 025°04'0 1.0
2018-May-17 19:30N 36°54' W 025°04'0 0.8
2018-May-17 19:01N 36°54' W 025°03'0 0.8
2018-May-17 18:30N 36°54' W 025°03'3 6.1
2018-May-17 18:00N 36°56' W 024°59'4 8.6
2018-May-17 17:30N 36°60' W 024°58'4 7.6
2018-May-17 17:00N 37°03' W 024°56'4 8.2
2018-May-17 16:30N 37°07' W 024°55'3 6.0
2018-May-17 16:00N 37°10' W 024°55'3 5.4
2018-May-17 15:30N 37°13' W 024°53'1 2.7
2018-May-17 15:00N 37°12' W 024°55'1 2.6
2018-May-17 14:30N 37°11' W 024°56'4 8.1
2018-May-17 14:00N 37°07' W 024°55'3 7.0
2018-May-17 13:30N 37°06' W 024°51'4 7.6
2018-May-17 13:00N 37°03' W 024°47'3 5.3
2018-May-17 12:31N 37°05' W 024°50'5 9.0
2018-May-17 12:00N 37°09' W 024°51'5 1.3
2018-May-17 07:58N 37°05' W 024°48'4 9.0
2018-May-17 07:30N 37°05' W 024°43'3 5.8
2018-May-17 07:00N 37°05' W 024°46'4 7.7
2018-May-17 06:30N 37°02' W 024°49'4 7.9
2018-May-17 06:00N 36°59' W 024°53'4 8.0
2018-May-17 05:30N 36°56' W 024°57'4 7.7
2018-May-17 05:01N 36°54' W 025°01'4 8.0
2018-May-17 04:30N 36°55' W 025°06'3 6.2
2018-May-17 04:00N 36°57' W 025°09'0 0.0
2018-May-17 03:30N 36°57' W 025°09'0 0.0
2018-May-17 03:00N 36°57' W 025°09'0 0.0
2018-May-17 02:31N 36°57' W 025°09'0 0.0
2018-May-17 02:00N 36°57' W 025°09'0 0.0
2018-May-17 01:30N 36°57' W 025°09'0 0.0
2018-May-17 01:01N 36°57' W 025°09'0 0.0
2018-May-17 00:30N 36°57' W 025°09'0 0.0
2018-May-17 00:00N 36°57' W 025°09'0 0.0
2018-May-16 23:31N 36°57' W 025°09'0 0.0
2018-May-16 23:00N 36°57' W 025°09'0 0.0
2018-May-16 22:30N 36°57' W 025°09'0 0.0
2018-May-16 22:00N 36°57' W 025°09'0 0.0
2018-May-16 21:30N 36°57' W 025°09'0 0.0
2018-May-16 21:00N 36°57' W 025°09'0 0.0
2018-May-16 20:30N 36°57' W 025°09'0 0.0
2018-May-16 20:00N 36°57' W 025°09'3 6.1
2018-May-16 19:30N 36°55' W 025°06'4 8.8
2018-May-16 19:00N 36°55' W 025°00'5 9.0
2018-May-16 18:30N 36°58' W 024°56'4 9.0
2018-May-16 18:00N 37°01' W 024°52'4 8.9
2018-May-16 17:30N 37°04' W 024°48'4 8.1
2018-May-16 17:00N 37°01' W 024°52'3 5.2
2018-May-16 16:30N 37°03' W 024°50'3 5.8
2018-May-16 16:00N 37°06' W 024°48'2 3.9
2018-May-16 15:30N 37°04' W 024°47'4 7.0
2018-May-16 15:00N 37°07' W 024°47'2 3.8
2018-May-16 14:30N 37°07' W 024°45'1 1.6
2018-May-16 14:00N 37°07' W 024°46'2 4.7
2018-May-16 13:31N 37°07' W 024°49'4 7.3
2018-May-16 13:00N 37°04' W 024°52'2 4.0
2018-May-16 12:30N 37°04' W 024°49'3 5.6
2018-May-16 12:01N 37°06' W 024°47'4 7.2
2018-May-16 11:30N 37°06' W 024°42'0 0.7
2018-May-16 11:00N 37°06' W 024°42'1 2.5
2018-May-16 10:30N 37°07' W 024°42'2 4.8
2018-May-16 10:00N 37°09' W 024°42'3 6.5
2018-May-16 09:30N 37°10' W 024°38'3 6.1
2018-May-16 09:00N 37°07' W 024°38'4 8.0
2018-May-16 08:30N 37°08' W 024°33'3 6.4
2018-May-16 08:00N 37°05' W 024°35'3 6.6
2018-May-16 07:30N 37°04' W 024°39'1 1.7
2018-May-16 07:00N 37°04' W 024°40'2 3.9
2018-May-16 06:30N 37°02' W 024°42'3 6.0
2018-May-16 06:00N 37°04' W 024°45'4 8.1
2018-May-16 05:30N 37°07' W 024°49'4 8.3
2018-May-16 05:00N 37°10' W 024°53'4 8.6
2018-May-16 04:30N 37°12' W 024°57'4 8.6
2018-May-16 04:00N 37°15' W 025°01'4 8.4
2018-May-16 03:30N 37°18' W 025°05'4 8.4
2018-May-16 03:00N 37°21' W 025°09'4 8.6
2018-May-16 02:30N 37°23' W 025°13'4 8.7
2018-May-16 02:00N 37°26' W 025°17'4 8.6
2018-May-16 01:30N 37°29' W 025°22'4 7.8
2018-May-16 01:00N 37°32' W 025°25'4 8.7
2018-May-16 00:30N 37°34' W 025°29'4 8.6
2018-May-16 00:00N 37°37' W 025°33'4 7.8
2018-May-15 23:30N 37°40' W 025°36'4 7.6
2018-May-15 23:01N 37°43' W 025°39'1 2.8
2018-May-15 22:30N 37°44' W 025°40'0 0.0
2018-May-15 22:00N 37°44' W 025°40'0 0.0
2018-May-15 21:29N 37°44' W 025°40'0 0.0
2018-May-15 21:00N 37°44' W 025°40'0 0.0
2018-May-15 20:30N 37°44' W 025°40'0 0.0
2018-May-15 20:00N 37°44' W 025°40'0 0.0
2018-May-15 19:30N 37°44' W 025°40'0 0.0
2018-May-15 19:00N 37°44' W 025°40'0 0.0
2018-May-15 18:30N 37°44' W 025°40'0 0.0
2018-May-15 18:00N 37°44' W 025°40'0 0.0
2018-May-15 17:30N 37°44' W 025°40'0 0.0
2018-May-15 17:00N 37°44' W 025°40'0 0.0
2018-May-15 16:30N 37°44' W 025°40'0 0.0
2018-May-15 16:00N 37°44' W 025°40'1 1.9
2018-May-15 15:30N 37°44' W 025°39'1 1.1
2018-May-15 15:00N 37°44' W 025°40'1 1.0
2018-May-15 14:30N 37°44' W 025°40'0 0.0
2018-May-15 14:00N 37°44' W 025°40'0 0.0
2018-May-15 13:30N 37°44' W 025°40'0 0.0
2018-May-15 13:00N 37°44' W 025°40'0 0.0
2018-May-15 12:30N 37°44' W 025°40'0 0.0
2018-May-15 12:00N 37°44' W 025°40'0 0.0
2018-May-15 11:30N 37°44' W 025°40'0 0.0
2018-May-15 11:00N 37°44' W 025°40'0 0.0
2018-May-15 10:30N 37°44' W 025°40'0 0.0
2018-May-15 10:00N 37°44' W 025°40'0 0.0
2018-May-15 09:30N 37°44' W 025°40'0 0.0
2018-May-15 09:00N 37°44' W 025°40'0 0.0
2018-May-15 08:30N 37°44' W 025°40'0 0.1
2018-May-15 08:00N 37°44' W 025°40'0 0.0
2018-May-15 07:30N 37°44' W 025°40'0 0.0
2018-May-15 07:00N 37°44' W 025°40'0 0.0
2018-May-15 06:30N 37°44' W 025°40'0 0.0
2018-May-15 06:00N 37°44' W 025°40'0 0.0
2018-May-15 05:30N 37°44' W 025°40'0 0.0
2018-May-15 05:00N 37°44' W 025°40'  

Dump ship's entire track history